createdAt,value
2023-07-15T00:00:04.084Z,14.91
2023-07-15T00:01:04.100Z,14.94
2023-07-15T00:02:04.065Z,14.79
2023-07-15T00:03:04.122Z,14.82
2023-07-15T00:04:04.140Z,14.78
2023-07-15T00:05:04.038Z,14.81
2023-07-15T00:06:04.037Z,14.85
2023-07-15T00:07:04.020Z,14.84
2023-07-15T00:08:04.103Z,14.85
2023-07-15T00:09:04.023Z,14.77
2023-07-15T00:10:04.000Z,14.82
2023-07-15T00:11:04.004Z,14.79
2023-07-15T00:12:03.993Z,14.78
2023-07-15T00:13:04.016Z,14.73
2023-07-15T00:14:03.980Z,14.65
2023-07-15T00:15:03.965Z,14.77
2023-07-15T00:16:04.029Z,14.78
2023-07-15T00:17:03.974Z,14.73
2023-07-15T00:18:04.034Z,14.78
2023-07-15T00:19:03.939Z,14.84
2023-07-15T00:20:03.925Z,14.79
2023-07-15T00:21:03.919Z,14.70
2023-07-15T00:22:03.956Z,14.66
2023-07-15T00:23:04.037Z,14.65
2023-07-15T00:24:03.897Z,14.66
2023-07-15T00:25:03.891Z,14.60
2023-07-15T00:26:03.873Z,14.63
2023-07-15T00:27:03.897Z,14.68
2023-07-15T00:28:03.860Z,14.66
2023-07-15T00:29:03.859Z,14.63
2023-07-15T00:30:03.855Z,14.59
2023-07-15T00:31:03.917Z,14.60
2023-07-15T00:32:03.899Z,14.77
2023-07-15T00:33:03.904Z,14.77
2023-07-15T00:34:03.828Z,14.81
2023-07-15T00:35:03.828Z,14.77
2023-07-15T00:36:03.839Z,14.82
2023-07-15T00:37:03.796Z,14.65
2023-07-15T00:38:03.785Z,14.73
2023-07-15T00:39:03.775Z,14.84
2023-07-15T00:40:03.850Z,14.79
2023-07-15T00:41:03.789Z,14.81
2023-07-15T00:42:03.769Z,14.84
2023-07-15T00:43:03.751Z,14.77
2023-07-15T00:44:03.741Z,14.72
2023-07-15T00:45:03.768Z,14.77
2023-07-15T00:46:03.773Z,14.69
2023-07-15T00:47:03.735Z,14.65
2023-07-15T00:48:03.783Z,14.65
2023-07-15T00:49:04.705Z,14.60
2023-07-15T00:50:03.726Z,14.60
2023-07-15T00:51:03.710Z,14.59
2023-07-15T00:52:03.708Z,14.55
2023-07-15T00:53:03.679Z,14.50
2023-07-15T00:54:03.667Z,14.43
2023-07-15T00:55:03.686Z,14.41
2023-07-15T00:56:03.659Z,14.35
2023-07-15T00:57:03.646Z,14.30
2023-07-15T00:58:03.643Z,14.28
2023-07-15T00:59:03.634Z,14.41
2023-07-15T01:00:03.642Z,14.37
2023-07-15T01:01:03.677Z,14.29
2023-07-15T01:02:03.665Z,14.35
2023-07-15T01:03:03.703Z,14.36
2023-07-15T01:04:03.618Z,14.29
2023-07-15T01:05:03.605Z,14.32
2023-07-15T01:06:03.578Z,14.30
2023-07-15T01:07:03.573Z,14.28
2023-07-15T01:08:03.554Z,14.26
2023-07-15T01:09:03.571Z,14.20
2023-07-15T01:10:03.556Z,14.15
2023-07-15T01:11:03.544Z,14.17
2023-07-15T01:12:03.524Z,14.17
2023-07-15T01:13:03.524Z,14.12
2023-07-15T01:14:03.566Z,14.15
2023-07-15T01:15:03.513Z,14.15
2023-07-15T01:16:03.543Z,14.10
2023-07-15T01:17:03.492Z,14.17
2023-07-15T01:18:03.500Z,14.20
2023-07-15T01:19:03.499Z,14.18
2023-07-15T01:20:03.471Z,14.25
2023-07-15T01:21:03.464Z,14.14
2023-07-15T01:22:03.448Z,14.15
2023-07-15T01:23:03.490Z,14.14
2023-07-15T01:24:03.424Z,14.10
2023-07-15T01:25:03.442Z,14.18
2023-07-15T01:26:03.409Z,14.10
2023-07-15T01:27:03.405Z,14.04
2023-07-15T01:28:03.426Z,14.04
2023-07-15T01:29:03.388Z,14.14
2023-07-15T01:30:03.370Z,14.10
2023-07-15T01:31:04.413Z,14.10
2023-07-15T01:32:03.392Z,14.07
2023-07-15T01:33:03.422Z,14.07
2023-07-15T01:34:03.346Z,14.05
2023-07-15T01:35:03.335Z,14.10
2023-07-15T01:36:03.330Z,14.07
2023-07-15T01:37:03.378Z,14.04
2023-07-15T01:38:03.321Z,14.08
2023-07-15T01:39:03.312Z,13.97
2023-07-15T01:40:03.300Z,14.04
2023-07-15T01:41:03.296Z,14.07
2023-07-15T01:42:03.308Z,14.00
2023-07-15T01:43:03.273Z,13.96
2023-07-15T01:44:03.264Z,13.97
2023-07-15T01:45:03.267Z,13.97
2023-07-15T01:46:03.276Z,13.92
2023-07-15T01:47:03.326Z,13.87
2023-07-15T01:48:03.277Z,13.92
2023-07-15T01:49:03.226Z,13.90
2023-07-15T01:50:03.229Z,13.96
2023-07-15T01:51:04.250Z,13.93
2023-07-15T01:52:03.201Z,13.92
2023-07-15T01:53:03.191Z,13.90
2023-07-15T01:54:03.187Z,13.85
2023-07-15T01:55:03.188Z,13.93
2023-07-15T01:56:03.199Z,13.93
2023-07-15T01:57:03.170Z,13.93
2023-07-15T01:58:03.160Z,13.95
2023-07-15T01:59:03.153Z,13.79
2023-07-15T02:00:03.174Z,13.90
2023-07-15T02:01:03.178Z,13.79
2023-07-15T02:02:03.186Z,13.92
2023-07-15T02:03:03.197Z,13.83
2023-07-15T02:04:03.139Z,13.87
2023-07-15T02:05:03.130Z,13.78
2023-07-15T02:06:03.123Z,13.79
2023-07-15T02:07:03.086Z,13.87
2023-07-15T02:08:03.094Z,13.78
2023-07-15T02:09:03.074Z,13.86
2023-07-15T02:10:03.083Z,13.83
2023-07-15T02:11:03.058Z,13.79
2023-07-15T02:12:03.049Z,13.72
2023-07-15T02:13:03.033Z,13.70
2023-07-15T02:14:03.035Z,13.75
2023-07-15T02:15:03.053Z,13.72
2023-07-15T02:16:03.018Z,13.83
2023-07-15T02:17:03.037Z,13.72
2023-07-15T02:18:03.029Z,13.71
2023-07-15T02:19:03.033Z,13.65
2023-07-15T02:20:03.016Z,13.70
2023-07-15T02:21:02.970Z,13.72
2023-07-15T02:22:02.978Z,13.78
2023-07-15T02:23:03.006Z,13.72
2023-07-15T02:24:02.974Z,13.65
2023-07-15T02:25:02.936Z,13.68
2023-07-15T02:26:02.943Z,13.67
2023-07-15T02:27:02.924Z,13.65
2023-07-15T02:28:02.927Z,13.74
2023-07-15T02:29:02.943Z,13.74
2023-07-15T02:30:02.915Z,13.62
2023-07-15T02:31:02.977Z,13.68
2023-07-15T02:32:03.895Z,13.57
2023-07-15T02:33:02.954Z,13.65
2023-07-15T02:34:02.892Z,13.62
2023-07-15T02:35:02.884Z,13.60
2023-07-15T02:36:02.851Z,13.57
2023-07-15T02:37:02.838Z,13.56
2023-07-15T02:38:02.868Z,13.60
2023-07-15T02:39:02.832Z,13.57
2023-07-15T02:40:02.826Z,13.49
2023-07-15T02:41:02.816Z,13.59
2023-07-15T02:42:02.810Z,13.59
2023-07-15T02:43:02.824Z,13.49
2023-07-15T02:44:02.790Z,13.53
2023-07-15T02:45:02.784Z,13.50
2023-07-15T02:46:02.781Z,13.59
2023-07-15T02:47:02.867Z,13.54
2023-07-15T02:48:02.822Z,13.49
2023-07-15T02:49:02.753Z,13.49
2023-07-15T02:50:02.759Z,13.44
2023-07-15T02:51:02.744Z,13.38
2023-07-15T02:52:02.755Z,13.37
2023-07-15T02:53:02.759Z,13.42
2023-07-15T02:54:02.713Z,13.52
2023-07-15T02:55:02.700Z,13.39
2023-07-15T02:56:02.701Z,13.35
2023-07-15T02:57:02.767Z,13.38
2023-07-15T02:58:02.676Z,13.25
2023-07-15T02:59:02.677Z,13.28
2023-07-15T03:00:02.661Z,13.23
2023-07-15T03:01:02.648Z,13.22
2023-07-15T03:02:02.725Z,13.27
2023-07-15T03:03:02.689Z,13.28
2023-07-15T03:04:02.644Z,13.31
2023-07-15T03:05:02.639Z,13.27
2023-07-15T03:06:02.644Z,13.25
2023-07-15T03:07:02.633Z,13.28
2023-07-15T03:08:02.604Z,13.35
2023-07-15T03:09:02.598Z,13.30
2023-07-15T03:10:02.588Z,13.30
2023-07-15T03:11:02.600Z,13.33
2023-07-15T03:12:02.571Z,13.41
2023-07-15T03:13:02.557Z,13.35
2023-07-15T03:14:02.565Z,13.30
2023-07-15T03:15:02.555Z,13.28
2023-07-15T03:16:02.608Z,13.25
2023-07-15T03:17:02.608Z,13.28
2023-07-15T03:18:02.613Z,13.18
2023-07-15T03:19:02.513Z,13.27
2023-07-15T03:20:03.556Z,13.30
2023-07-15T03:21:02.527Z,13.19
2023-07-15T03:22:02.497Z,13.18
2023-07-15T03:23:02.607Z,13.27
2023-07-15T03:24:02.477Z,13.19
2023-07-15T03:25:02.529Z,13.27
2023-07-15T03:26:02.475Z,13.25
2023-07-15T03:27:02.460Z,13.09
2023-07-15T03:28:02.473Z,13.19
2023-07-15T03:29:02.458Z,13.16
2023-07-15T03:30:02.468Z,13.13
2023-07-15T03:31:02.427Z,13.23
2023-07-15T03:32:02.459Z,13.30
2023-07-15T03:33:02.456Z,13.30
2023-07-15T03:34:02.434Z,13.13
2023-07-15T03:35:02.437Z,13.28
2023-07-15T03:36:02.391Z,13.23
2023-07-15T03:37:02.389Z,13.33
2023-07-15T03:38:02.375Z,13.27
2023-07-15T03:39:02.392Z,13.35
2023-07-15T03:40:02.390Z,13.37
2023-07-15T03:41:02.363Z,13.37
2023-07-15T03:42:02.347Z,13.39
2023-07-15T03:43:02.350Z,13.38
2023-07-15T03:44:02.354Z,13.37
2023-07-15T03:45:02.336Z,13.39
2023-07-15T03:46:02.347Z,13.37
2023-07-15T03:47:02.315Z,13.39
2023-07-15T03:48:02.347Z,13.42
2023-07-15T03:49:02.321Z,13.52
2023-07-15T03:50:02.282Z,13.49
2023-07-15T03:51:02.274Z,13.56
2023-07-15T03:52:02.268Z,13.53
2023-07-15T03:53:02.285Z,13.54
2023-07-15T03:54:02.293Z,13.56
2023-07-15T03:55:02.246Z,13.60
2023-07-15T03:56:02.232Z,13.65
2023-07-15T03:57:02.228Z,13.63
2023-07-15T03:58:02.243Z,13.59
2023-07-15T03:59:02.219Z,13.62
2023-07-15T04:00:02.214Z,13.67
2023-07-15T04:01:02.199Z,13.67
2023-07-15T04:02:02.237Z,13.74
2023-07-15T04:03:02.234Z,13.87
2023-07-15T04:04:02.191Z,14.47
2023-07-15T04:05:02.175Z,14.96
2023-07-15T04:06:02.159Z,15.47
2023-07-15T04:07:02.173Z,15.84
2023-07-15T04:08:02.171Z,16.42
2023-07-15T04:09:02.148Z,17.02
2023-07-15T04:10:02.152Z,17.36
2023-07-15T04:11:02.126Z,17.65
2023-07-15T04:12:02.152Z,18.04
2023-07-15T04:13:02.104Z,18.38
2023-07-15T04:14:02.112Z,18.62
2023-07-15T04:15:02.095Z,18.96
2023-07-15T04:16:02.111Z,19.16
2023-07-15T04:17:02.102Z,19.44
2023-07-15T04:18:02.113Z,19.67
2023-07-15T04:19:02.058Z,19.91
2023-07-15T04:20:02.082Z,20.13
2023-07-15T04:21:02.098Z,20.21
2023-07-15T04:22:02.058Z,20.34
2023-07-15T04:23:02.121Z,20.56
2023-07-15T04:24:02.050Z,20.65
2023-07-15T04:25:02.016Z,20.78
2023-07-15T04:26:02.068Z,21.02
2023-07-15T04:27:02.001Z,21.15
2023-07-15T04:28:02.015Z,21.18
2023-07-15T04:29:01.989Z,21.22
2023-07-15T04:30:01.994Z,21.37
2023-07-15T04:31:02.037Z,21.46
2023-07-15T04:32:01.966Z,21.61
2023-07-15T04:33:02.011Z,21.66
2023-07-15T04:34:01.956Z,21.76
2023-07-15T04:35:01.969Z,21.93
2023-07-15T04:36:01.954Z,22.13
2023-07-15T04:37:01.928Z,22.30
2023-07-15T04:38:01.925Z,22.44
2023-07-15T04:39:01.906Z,22.65
2023-07-15T04:40:01.930Z,22.83
2023-07-15T04:41:01.921Z,22.94
2023-07-15T04:42:01.895Z,23.02
2023-07-15T04:43:01.895Z,22.94
2023-07-15T04:44:01.880Z,22.85
2023-07-15T04:45:01.894Z,22.75
2023-07-15T04:46:01.917Z,22.87
2023-07-15T04:47:01.856Z,23.09
2023-07-15T04:48:01.884Z,23.48
2023-07-15T04:49:01.835Z,23.65
2023-07-15T04:50:01.855Z,23.68
2023-07-15T04:51:01.818Z,23.92
2023-07-15T04:52:01.811Z,24.01
2023-07-15T04:53:01.814Z,24.28
2023-07-15T04:54:01.846Z,24.57
2023-07-15T04:55:01.825Z,24.69
2023-07-15T04:56:01.780Z,24.77
2023-07-15T04:57:01.776Z,24.85
2023-07-15T04:58:01.770Z,24.98
2023-07-15T04:59:01.794Z,24.91
2023-07-15T05:00:04.961Z,25.06
2023-07-15T05:01:02.796Z,25.41
2023-07-15T05:02:01.752Z,25.48
2023-07-15T05:03:01.734Z,25.90
2023-07-15T05:04:01.794Z,25.88
2023-07-15T05:05:01.718Z,25.72
2023-07-15T05:06:01.796Z,25.85
2023-07-15T05:07:01.716Z,26.18
2023-07-15T05:08:01.725Z,26.40
2023-07-15T05:09:01.734Z,26.45
2023-07-15T05:10:01.700Z,26.53
2023-07-15T05:11:01.679Z,26.68
2023-07-15T05:12:01.696Z,26.81
2023-07-15T05:13:01.705Z,26.93
2023-07-15T05:14:01.662Z,27.14
2023-07-15T05:15:01.666Z,27.22
2023-07-15T05:16:01.695Z,27.15
2023-07-15T05:17:01.634Z,27.12
2023-07-15T05:18:01.716Z,27.14
2023-07-15T05:19:01.620Z,27.17
2023-07-15T05:20:01.616Z,27.17
2023-07-15T05:21:01.626Z,27.18
2023-07-15T05:22:01.612Z,27.33
2023-07-15T05:23:01.745Z,27.49
2023-07-15T05:24:01.600Z,27.52
2023-07-15T05:25:01.608Z,27.54
2023-07-15T05:26:01.577Z,27.83
2023-07-15T05:27:01.612Z,28.08
2023-07-15T05:28:01.583Z,28.15
2023-07-15T05:29:01.554Z,28.38
2023-07-15T05:30:01.575Z,28.30
2023-07-15T05:31:01.665Z,28.48
2023-07-15T05:32:01.654Z,28.75
2023-07-15T05:33:01.597Z,28.84
2023-07-15T05:34:01.545Z,29.24
2023-07-15T05:35:01.526Z,29.01
2023-07-15T05:36:33.462Z,29.01
2023-07-15T05:37:01.537Z,29.04
2023-07-15T05:38:01.510Z,29.29
2023-07-15T05:39:01.501Z,29.19
2023-07-15T05:40:01.495Z,29.13
2023-07-15T05:41:01.489Z,29.14
2023-07-15T05:42:01.507Z,29.49
2023-07-15T05:43:01.482Z,29.86
2023-07-15T05:44:01.490Z,29.95
2023-07-15T05:45:01.464Z,29.78
2023-07-15T05:46:01.495Z,29.61
2023-07-15T05:47:01.500Z,29.36
2023-07-15T05:48:01.472Z,29.38
2023-07-15T05:49:01.433Z,29.12
2023-07-15T05:50:01.432Z,29.05
2023-07-15T05:51:01.458Z,29.19
2023-07-15T05:52:01.416Z,29.22
2023-07-15T05:53:01.427Z,29.56
2023-07-15T05:54:01.412Z,29.82
2023-07-15T05:55:01.392Z,30.16
2023-07-15T05:56:01.417Z,30.28
2023-07-15T05:57:01.394Z,30.35
2023-07-15T05:58:01.377Z,30.44
2023-07-15T05:59:01.376Z,30.77
2023-07-15T06:00:01.390Z,31.14
2023-07-15T06:01:01.418Z,31.34
2023-07-15T06:02:01.380Z,31.43
2023-07-15T06:03:01.405Z,31.29
2023-07-15T06:04:01.465Z,31.51
2023-07-15T06:05:01.366Z,31.58
2023-07-15T06:06:01.349Z,31.77
2023-07-15T06:07:01.335Z,31.65
2023-07-15T06:08:01.339Z,31.59
2023-07-15T06:09:01.315Z,31.54
2023-07-15T06:10:01.348Z,31.37
2023-07-15T06:11:01.311Z,31.51
2023-07-15T06:12:01.311Z,31.24
2023-07-15T06:13:01.297Z,31.21
2023-07-15T06:14:01.320Z,31.07
2023-07-15T06:15:01.306Z,30.75
2023-07-15T06:16:01.271Z,30.99
2023-07-15T06:17:01.288Z,31.56
2023-07-15T06:18:01.349Z,31.39
2023-07-15T06:19:01.296Z,31.24
2023-07-15T06:20:01.253Z,30.91
2023-07-15T06:21:01.251Z,31.07
2023-07-15T06:22:03.041Z,30.85
2023-07-15T06:23:01.290Z,30.51
2023-07-15T06:24:01.247Z,30.62
2023-07-15T06:25:01.231Z,31.43
2023-07-15T06:26:01.215Z,31.99
2023-07-15T06:27:01.303Z,32.26
2023-07-15T06:28:01.234Z,32.52
2023-07-15T06:29:01.232Z,32.89
2023-07-15T06:30:01.192Z,33.27
2023-07-15T06:31:01.242Z,33.92
2023-07-15T06:32:01.188Z,33.98
2023-07-15T06:33:01.387Z,34.33
2023-07-15T06:34:01.175Z,34.43
2023-07-15T06:35:01.174Z,34.80
2023-07-15T06:36:01.158Z,34.73
2023-07-15T06:37:01.154Z,34.30
2023-07-15T06:38:01.177Z,33.95
2023-07-15T06:39:01.170Z,33.76
2023-07-15T06:40:01.138Z,33.81
2023-07-15T06:41:01.146Z,34.13
2023-07-15T06:42:01.157Z,34.20
2023-07-15T06:43:01.153Z,34.45
2023-07-15T06:44:01.141Z,34.45
2023-07-15T06:45:01.155Z,34.24
2023-07-15T06:46:01.113Z,34.36
2023-07-15T06:47:01.303Z,34.47
2023-07-15T06:48:01.169Z,34.24
2023-07-15T06:49:01.097Z,34.32
2023-07-15T06:50:01.106Z,34.45
2023-07-15T06:51:01.126Z,34.45
2023-07-15T06:52:01.125Z,35.02
2023-07-15T06:53:01.086Z,35.10
2023-07-15T06:54:01.069Z,35.04
2023-07-15T06:55:01.066Z,35.26
2023-07-15T06:56:13.797Z,35.79
2023-07-15T06:57:03.098Z,36.39
2023-07-15T06:58:01.062Z,36.83
2023-07-15T06:59:01.042Z,36.92
2023-07-15T07:00:01.038Z,37.44
2023-07-15T07:01:01.124Z,37.49
2023-07-15T07:02:01.031Z,37.53
2023-07-15T07:03:01.117Z,37.28
2023-07-15T07:04:01.015Z,37.10
2023-07-15T07:05:01.009Z,36.70
2023-07-15T07:06:01.036Z,37.06
2023-07-15T07:07:01.011Z,37.25
2023-07-15T07:08:00.995Z,37.44
2023-07-15T07:09:00.980Z,37.33
2023-07-15T07:10:01.031Z,37.32
2023-07-15T07:11:01.024Z,36.76
2023-07-15T07:12:00.994Z,36.67
2023-07-15T07:13:00.988Z,36.81
2023-07-15T07:14:00.966Z,36.84
2023-07-15T07:15:01.016Z,37.02
2023-07-15T07:16:00.953Z,36.88
2023-07-15T07:17:00.964Z,36.96
2023-07-15T07:18:01.025Z,37.15
2023-07-15T07:19:00.977Z,37.72
2023-07-15T07:20:03.746Z,37.56
2023-07-15T07:21:01.964Z,37.44
2023-07-15T07:22:00.926Z,37.44
2023-07-15T07:23:00.964Z,36.89
2023-07-15T07:24:00.917Z,36.43
2023-07-15T07:25:00.933Z,35.61
2023-07-15T07:26:00.907Z,35.88
2023-07-15T07:27:00.912Z,36.55
2023-07-15T07:28:00.902Z,36.79
2023-07-15T07:29:00.933Z,36.76
2023-07-15T07:30:01.909Z,37.03
2023-07-15T07:31:00.925Z,37.08
2023-07-15T07:32:00.881Z,37.56
2023-07-15T07:33:00.909Z,37.49
2023-07-15T07:34:00.901Z,37.86
2023-07-15T07:35:00.876Z,38.49
2023-07-15T07:36:00.859Z,38.42
2023-07-15T07:37:03.640Z,38.55
2023-07-15T07:38:00.854Z,38.55
2023-07-15T07:39:00.886Z,38.42
2023-07-15T07:40:00.875Z,38.60
2023-07-15T07:41:00.838Z,38.74
2023-07-15T07:42:00.834Z,38.76
2023-07-15T07:43:00.856Z,38.86
2023-07-15T07:44:00.887Z,39.03
2023-07-15T07:45:00.825Z,39.21
2023-07-15T07:46:00.858Z,39.44
2023-07-15T07:47:00.895Z,39.51
2023-07-15T07:48:00.922Z,39.31
2023-07-15T07:49:00.811Z,39.41
2023-07-15T07:50:00.813Z,39.51
2023-07-15T07:51:00.804Z,39.36
2023-07-15T07:52:00.791Z,39.59
2023-07-15T07:53:00.832Z,39.89
2023-07-15T07:54:00.801Z,40.20
2023-07-15T07:55:00.779Z,40.31
2023-07-15T07:56:00.779Z,40.43
2023-07-15T07:57:00.803Z,40.30
2023-07-15T07:58:00.789Z,39.99
2023-07-15T07:59:00.759Z,39.67
2023-07-15T08:00:00.768Z,39.78
2023-07-15T08:01:00.749Z,40.00
2023-07-15T08:02:00.813Z,40.15
2023-07-15T08:03:00.856Z,40.23
2023-07-15T08:04:00.832Z,40.47
2023-07-15T08:05:00.743Z,40.85
2023-07-15T08:06:00.739Z,41.52
2023-07-15T08:07:00.751Z,41.85
2023-07-15T08:08:00.740Z,41.70
2023-07-15T08:09:00.727Z,41.26
2023-07-15T08:10:00.733Z,41.56
2023-07-15T08:11:00.739Z,41.97
2023-07-15T08:12:00.792Z,42.39
2023-07-15T08:13:00.711Z,42.17
2023-07-15T08:14:00.715Z,41.83
2023-07-15T08:15:00.698Z,41.47
2023-07-15T08:16:00.841Z,41.10
2023-07-15T08:17:00.703Z,40.69
2023-07-15T08:18:00.726Z,40.73
2023-07-15T08:19:00.697Z,40.77
2023-07-15T08:20:00.676Z,41.07
2023-07-15T08:21:00.693Z,41.25
2023-07-15T08:22:00.662Z,41.66
2023-07-15T08:23:00.789Z,41.49
2023-07-15T08:24:00.659Z,41.44
2023-07-15T08:25:00.653Z,41.62
2023-07-15T08:26:00.707Z,41.47
2023-07-15T08:27:00.644Z,41.00
2023-07-15T08:28:00.641Z,41.06
2023-07-15T08:29:00.640Z,41.31
2023-07-15T08:30:00.657Z,40.82
2023-07-15T08:31:00.654Z,39.85
2023-07-15T08:32:00.710Z,39.30
2023-07-15T08:33:00.688Z,38.38
2023-07-15T08:34:00.607Z,37.67
2023-07-15T08:35:00.648Z,37.37
2023-07-15T08:36:00.601Z,37.56
2023-07-15T08:37:00.602Z,37.08
2023-07-15T08:38:00.582Z,36.96
2023-07-15T08:39:01.619Z,36.67
2023-07-15T08:40:00.606Z,36.24
2023-07-15T08:41:00.622Z,36.59
2023-07-15T08:42:00.573Z,36.79
2023-07-15T08:43:00.572Z,36.65
2023-07-15T08:44:00.610Z,36.65
2023-07-15T08:45:00.577Z,37.07
2023-07-15T08:46:00.596Z,36.99
2023-07-15T08:47:01.553Z,36.77
2023-07-15T08:48:00.566Z,36.64
2023-07-15T08:49:00.566Z,36.51
2023-07-15T08:50:00.531Z,37.30
2023-07-15T08:51:00.526Z,38.05
2023-07-15T08:52:00.519Z,38.68
2023-07-15T08:53:00.513Z,39.26
2023-07-15T08:54:00.587Z,39.30
2023-07-15T08:55:00.506Z,39.65
2023-07-15T08:56:00.524Z,39.80
2023-07-15T08:57:00.489Z,39.70
2023-07-15T08:58:00.531Z,40.08
2023-07-15T08:59:00.527Z,39.36
2023-07-15T09:00:00.515Z,38.19
2023-07-15T09:01:00.480Z,37.58
2023-07-15T09:02:00.507Z,37.70
2023-07-15T09:03:00.547Z,38.11
2023-07-15T09:04:00.594Z,38.45
2023-07-15T09:05:00.611Z,38.65
2023-07-15T09:06:00.449Z,38.68
2023-07-15T09:07:00.448Z,39.34
2023-07-15T09:08:00.476Z,39.53
2023-07-15T09:09:00.433Z,40.24
2023-07-15T09:10:00.425Z,40.56
2023-07-15T09:11:00.433Z,40.90
2023-07-15T09:12:00.485Z,41.22
2023-07-15T09:13:00.437Z,40.26
2023-07-15T09:14:00.408Z,39.52
2023-07-15T09:15:00.441Z,38.62
2023-07-15T09:16:00.426Z,37.93
2023-07-15T09:17:00.417Z,37.64
2023-07-15T09:18:00.465Z,36.76
2023-07-15T09:19:00.512Z,36.45
2023-07-15T09:20:00.443Z,36.24
2023-07-15T09:21:00.374Z,35.79
2023-07-15T09:22:00.389Z,35.58
2023-07-15T09:23:00.501Z,35.48
2023-07-15T09:24:00.354Z,35.33
2023-07-15T09:25:00.348Z,35.39
2023-07-15T09:26:00.392Z,34.96
2023-07-15T09:27:00.374Z,34.67
2023-07-15T09:28:00.326Z,34.43
2023-07-15T09:29:00.344Z,34.45
2023-07-15T09:30:00.324Z,34.27
2023-07-15T09:31:00.458Z,34.48
2023-07-15T09:32:01.369Z,34.51
2023-07-15T09:33:00.331Z,34.38
2023-07-15T09:34:00.296Z,34.32
2023-07-15T09:35:00.288Z,34.29
2023-07-15T09:36:00.312Z,34.25
2023-07-15T09:37:00.278Z,34.50
2023-07-15T09:38:00.277Z,34.77
2023-07-15T09:39:00.285Z,34.83
2023-07-15T09:40:00.296Z,34.99
2023-07-15T09:41:00.281Z,35.04
2023-07-15T09:42:00.246Z,35.05
2023-07-15T09:43:00.246Z,35.10
2023-07-15T09:44:00.236Z,34.78
2023-07-15T09:45:00.300Z,34.25
2023-07-15T09:46:00.258Z,34.33
2023-07-15T09:47:00.218Z,34.27
2023-07-15T09:48:00.260Z,34.30
2023-07-15T09:49:00.195Z,34.10
2023-07-15T09:50:00.224Z,34.01
2023-07-15T09:51:00.195Z,33.86
2023-07-15T09:52:00.191Z,33.71
2023-07-15T09:53:00.176Z,33.69
2023-07-15T09:54:00.200Z,33.73
2023-07-15T09:55:00.210Z,33.52
2023-07-15T09:56:00.161Z,33.40
2023-07-15T09:57:00.181Z,33.28
2023-07-15T09:58:00.145Z,33.24
2023-07-15T09:59:00.165Z,33.20
2023-07-15T10:00:00.140Z,33.08
2023-07-15T10:01:00.197Z,33.09
2023-07-15T10:02:00.126Z,33.05
2023-07-15T10:03:00.146Z,32.90
2023-07-15T10:04:00.163Z,32.78
2023-07-15T10:05:00.114Z,32.65
2023-07-15T10:06:00.090Z,32.63
2023-07-15T10:07:00.095Z,32.56
2023-07-15T10:08:00.121Z,32.38
2023-07-15T10:09:02.792Z,32.34
2023-07-15T10:10:00.064Z,32.40
2023-07-15T10:11:00.065Z,32.49
2023-07-15T10:12:00.061Z,32.56
2023-07-15T10:13:00.073Z,32.77
2023-07-15T10:14:00.049Z,32.90
2023-07-15T10:15:00.041Z,33.11
2023-07-15T10:16:00.055Z,33.45
2023-07-15T10:17:00.022Z,33.50
2023-07-15T10:18:00.075Z,33.73
2023-07-15T10:19:00.010Z,33.76
2023-07-15T10:20:00.000Z,33.90
2023-07-15T10:20:59.999Z,33.95
2023-07-15T10:22:00.032Z,33.92
2023-07-15T10:23:00.045Z,33.71
2023-07-15T10:23:59.970Z,33.73
2023-07-15T10:24:59.961Z,33.65
2023-07-15T10:25:59.957Z,33.67
2023-07-15T10:26:59.972Z,33.69
2023-07-15T10:27:59.963Z,33.55
2023-07-15T10:28:59.936Z,33.61
2023-07-15T10:29:59.934Z,33.69
2023-07-15T10:31:06.043Z,34.01
2023-07-15T10:32:02.225Z,34.10
2023-07-15T10:32:59.943Z,34.27
2023-07-15T10:33:59.972Z,34.29
2023-07-15T10:34:59.896Z,34.47
2023-07-15T10:35:59.887Z,34.60
2023-07-15T10:36:59.909Z,34.81
2023-07-15T10:38:01.474Z,35.12
2023-07-15T10:38:59.869Z,35.49
2023-07-15T10:39:59.858Z,35.66
2023-07-15T10:40:59.853Z,35.92
2023-07-15T10:41:59.870Z,35.83
2023-07-15T10:42:59.838Z,35.55
2023-07-15T10:43:59.835Z,35.56
2023-07-15T10:44:59.820Z,35.56
2023-07-15T10:45:59.812Z,35.58
2023-07-15T10:46:59.857Z,35.39
2023-07-15T10:47:59.860Z,35.24
2023-07-15T10:48:59.783Z,35.24
2023-07-15T10:50:00.784Z,35.45
2023-07-15T10:50:59.807Z,35.63
2023-07-15T10:51:59.804Z,35.74
2023-07-15T10:52:59.769Z,35.64
2023-07-15T10:53:59.756Z,35.76
2023-07-15T10:54:59.755Z,35.70
2023-07-15T10:55:59.770Z,35.67
2023-07-15T10:56:59.740Z,35.53
2023-07-15T10:57:59.737Z,35.58
2023-07-15T10:58:59.726Z,35.66
2023-07-15T10:59:59.758Z,35.64
2023-07-15T11:00:59.865Z,35.51
2023-07-15T11:01:59.745Z,35.34
2023-07-15T11:02:59.772Z,35.42
2023-07-15T11:03:59.885Z,35.45
2023-07-15T11:04:59.699Z,35.58
2023-07-15T11:05:59.758Z,35.56
2023-07-15T11:06:59.762Z,35.55
2023-07-15T11:07:59.681Z,35.45
2023-07-15T11:08:59.660Z,35.39
2023-07-15T11:09:59.722Z,35.15
2023-07-15T11:10:59.695Z,35.02
2023-07-15T11:11:59.652Z,35.15
2023-07-15T11:12:59.638Z,35.04
2023-07-15T11:13:59.625Z,34.97
2023-07-15T11:14:59.643Z,34.90
2023-07-15T11:15:59.648Z,34.73
2023-07-15T11:16:59.642Z,34.62
2023-07-15T11:17:59.773Z,34.66
2023-07-15T11:18:59.632Z,34.54
2023-07-15T11:19:59.624Z,34.51
2023-07-15T11:20:59.608Z,34.58
2023-07-15T11:21:59.586Z,34.78
2023-07-15T11:22:59.609Z,34.81
2023-07-15T11:23:59.668Z,34.75
2023-07-15T11:24:59.579Z,34.73
2023-07-15T11:25:59.550Z,34.95
2023-07-15T11:26:59.543Z,34.77
2023-07-15T11:27:59.537Z,34.50
2023-07-15T11:28:59.561Z,34.35
2023-07-15T11:29:59.518Z,34.27
2023-07-15T11:30:59.546Z,34.13
2023-07-15T11:31:59.516Z,34.01
2023-07-15T11:32:59.526Z,33.64
2023-07-15T11:33:59.524Z,33.64
2023-07-15T11:35:01.085Z,33.46
2023-07-15T11:35:59.486Z,33.17
2023-07-15T11:36:59.474Z,32.93
2023-07-15T11:37:59.584Z,32.89
2023-07-15T11:38:59.485Z,32.67
2023-07-15T11:39:59.465Z,32.68
2023-07-15T11:40:59.441Z,32.53
2023-07-15T11:41:59.474Z,32.33
2023-07-15T11:42:59.460Z,32.38
2023-07-15T11:43:59.441Z,32.27
2023-07-15T11:44:59.413Z,32.21
2023-07-15T11:45:59.408Z,32.29
2023-07-15T11:46:59.453Z,32.36
2023-07-15T11:47:59.470Z,32.36
2023-07-15T11:48:59.384Z,32.33
2023-07-15T11:49:59.380Z,32.65
2023-07-15T11:50:59.370Z,32.74
2023-07-15T11:51:59.372Z,32.92
2023-07-15T11:52:59.384Z,33.05
2023-07-15T11:53:59.354Z,33.05
2023-07-15T11:54:59.341Z,33.12
2023-07-15T11:55:59.329Z,33.34
2023-07-15T11:57:00.159Z,33.47
2023-07-15T11:58:00.355Z,33.50
2023-07-15T11:58:59.352Z,33.59
2023-07-15T11:59:59.304Z,33.69
2023-07-15T12:00:59.310Z,33.80
2023-07-15T12:01:59.375Z,34.05
2023-07-15T12:02:59.353Z,34.24
2023-07-15T12:03:59.349Z,34.35
2023-07-15T12:04:59.290Z,34.51
2023-07-15T12:05:59.263Z,34.81
2023-07-15T12:06:59.287Z,35.11
2023-07-15T12:07:59.249Z,35.29
2023-07-15T12:08:59.250Z,35.55
2023-07-15T12:09:59.237Z,35.53
2023-07-15T12:10:59.225Z,35.56
2023-07-15T12:11:59.256Z,35.64
2023-07-15T12:12:59.215Z,35.55
2023-07-15T12:13:59.211Z,35.61
2023-07-15T12:14:59.208Z,35.49
2023-07-15T12:15:59.257Z,35.63
2023-07-15T12:16:59.296Z,35.61
2023-07-15T12:17:59.217Z,35.51
2023-07-15T12:18:59.188Z,35.49
2023-07-15T12:19:59.175Z,35.48
2023-07-15T12:20:59.189Z,35.49
2023-07-15T12:21:59.158Z,35.51
2023-07-15T12:22:59.199Z,35.34
2023-07-15T12:23:59.126Z,35.24
2023-07-15T12:25:00.175Z,35.23
2023-07-15T12:25:59.158Z,34.97
2023-07-15T12:26:59.124Z,34.99
2023-07-15T12:27:59.123Z,34.74
2023-07-15T12:28:59.117Z,34.67
2023-07-15T12:30:04.443Z,34.47
2023-07-15T12:31:01.143Z,34.51
2023-07-15T12:31:59.083Z,34.48
2023-07-15T12:32:59.121Z,34.51
2023-07-15T12:33:59.074Z,34.51
2023-07-15T12:34:59.110Z,34.50
2023-07-15T12:35:59.081Z,34.36
2023-07-15T12:36:59.054Z,34.52
2023-07-15T12:37:59.056Z,34.71
2023-07-15T12:38:59.041Z,34.77
2023-07-15T12:39:59.061Z,34.83
2023-07-15T12:40:59.030Z,34.64
2023-07-15T12:41:59.016Z,34.38
2023-07-15T12:42:59.015Z,34.24
2023-07-15T12:43:59.014Z,34.33
2023-07-15T12:44:59.020Z,34.48
2023-07-15T12:45:59.020Z,34.42
2023-07-15T12:46:59.034Z,34.55
2023-07-15T12:47:59.275Z,34.57
2023-07-15T12:49:00.045Z,34.47
2023-07-15T12:49:58.986Z,34.17
2023-07-15T12:50:58.970Z,34.17
2023-07-15T12:51:58.958Z,33.79